Edmonton City Centre Airport, Alberta

Past 24 Hour Conditions

Date / Time
(MST)
Conditions Temp
(°C)
Humidity
(%)
Dew Point
(°C)
Wind
(km/h)
Pressure
(kPa)
Vis
(km)
Wind Chill
22 November 2014
22:00 Light Snow -6   82 -9 NW 13 100.7 8 -12
21:00 Cloudy -6   80 -9 NNW 17 gust 30 100.6 15 -12
20:00 Light Snow -6   83 -8 NW 20 100.4 3 -12
19:00 Light Snow -5 85 -7 NW 17 100.3 5 -11
18:00 Light Snow -5 85 -7 NNW 11 100.1 5 -10
17:00 Light Snow -5 85 -7 NNW 13 100.0 6 -10
16:00 Light Snow -5 85 -7 NNW 13 99.8 4 -10
15:00 Light Snow -5 85 -7 NNW 15 99.7 3 -10
14:00 Light Snow -4 84 -7 NNW 15 99.5 3 -10
13:00 Light Snow -4 85 -6 N 20 99.3 2 -10
12:00 Light Snow -3 87 -5 NNE 19 99.2 1 -9
11:00 Light Snow -2 90 -3 NE 15 99.1 2 -7
10:00 Light Snow -1 91 -2 NE 11 99.0 3 -5
9:00 Light Snow 0 93 -1 ENE 11 98.9 1 -4
8:00 Light Precipitation 0 94 -1 ENE 17 98.8 2 *
7:00 Cloudy 1 92 0 E 15 98.8 8 *
6:00 Cloudy 1 90 0 ESE 15 98.8 15 *
5:00 Cloudy 1 90 0 ESE 19 gust 32 98.9 15 *
4:00 Cloudy 1 88 -1 ESE 20 gust 33 98.9 15 *
3:00 Cloudy 1 87 -1 ESE 30 gust 44 98.9 15 *
2:00 Mostly Cloudy 1 88 -1 ESE 30 gust 39 99.0 15 *
1:00 Cloudy 2   87 0 ESE 19 gust 33 99.1 15 *
00:00 Cloudy 2   88 0 ESE 28 99.3 15 *
21 November 2014
23:00 Cloudy 2   90 1 E 24 99.4 15 *
22:00 Cloudy 2   91 1 ESE 19 99.5 11 *
N/A Not available
↑ Highest temperature
↓ Lowest temperature
* Value not significant.

If you require additional historical weather information, please visit Climate Data Online.

Date modified: